»·PEaware :: QXE2001 KYKM-KSEA

QXE2001 :: KYKM-KSEA

FLIGHT INFORMATION

Flight Status: Arrived
Operator:
Horizon Air
More flights by this operator :: More flights under this callsign
Pilot: Aaron T. (8357)
Aircraft: DEHAVILLAND DASH 8 400
(DH8D)
More flights by this aircraft type
Origin: KYKM Yakima Air Term/Mcallister
United States
Destination: KSEA Seattle-Tacoma Intl
United States
More flights between these airports :: More routes between these airports
Route: +NACHES4 YKM V4 CHINS
File this flight plan on PilotEdge
Remarks: RMK / SIMBRIEF
Altitude:
(Current/Filed)
14,000ft
Speed:
(Current/Filed)
319kts
Departed: 11-Jun-19 08:08 PM
Arrived: 11-Jun-19 08:35 PM
Distance/Time
Traveled:
89nm/0:27
Distance/Time
To Go:
Arrived

Flight Plot

Page will automatically refresh every two minutes.

Flight plan parsing failed; only flown route is shown


Map Options




Map Legend


Flown Route
Filed Route
Departure Airport
Arrival Airport
Navaid (VOR, NDB)
Fix

Horizontal Profiles

Position Reports

Time Latitude Longitude Heading Altitude Ground
Speed
11-Jun-19 19:46 46.569881 -120.541735 358 1102ft 0kts
11-Jun-19 19:47 46.569881 -120.541735 358 1102ft 0kts
11-Jun-19 19:48 46.569881 -120.541735 358 1102ft 0kts
11-Jun-19 19:49 46.569881 -120.541735 358 1102ft 0kts
11-Jun-19 19:50 46.569881 -120.541735 358 1102ft 0kts
11-Jun-19 19:51 46.569881 -120.541735 358 1102ft 0kts
11-Jun-19 19:52 46.569881 -120.541735 358 1102ft 0kts
11-Jun-19 19:53 46.569881 -120.541735 358 1102ft 0kts
11-Jun-19 19:54 46.569881 -120.541735 358 1102ft 0kts
11-Jun-19 19:55 46.569881 -120.541735 358 1102ft 0kts
11-Jun-19 19:56 46.569881 -120.541735 358 1102ft 0kts
11-Jun-19 19:57 46.569881 -120.541735 358 1102ft 0kts
11-Jun-19 19:58 46.569881 -120.541735 358 1102ft 0kts
11-Jun-19 19:59 46.569730 -120.541730 359 1102ft 2kts
11-Jun-19 20:00 46.569095 -120.541829 23 1102ft 2kts
11-Jun-19 20:01 46.568989 -120.542275 109 1102ft 0kts
11-Jun-19 20:02 46.568989 -120.542275 109 1102ft 0kts
11-Jun-19 20:03 46.568931 -120.542042 110 1102ft 7kts
11-Jun-19 20:04 46.567114 -120.534771 108 1102ft 20kts
11-Jun-19 20:05 46.566302 -120.531463 111 1102ft 0kts
11-Jun-19 20:06 46.566302 -120.531463 111 1102ft 0kts
11-Jun-19 20:07 46.566725 -120.536389 290 1102ft 76kts
11-Jun-19 20:08 46.586517 -120.583644 331 2421ft 176kts
11-Jun-19 20:09 46.636233 -120.615193 333 4752ft 202kts
11-Jun-19 20:10 46.683837 -120.647448 335 6369ft 216kts
11-Jun-19 20:11 46.721419 -120.706506 273 8009ft 244kts
11-Jun-19 20:12 46.722931 -120.805427 256 9938ft 253kts
11-Jun-19 20:13 46.756238 -120.886782 322 11872ft 248kts
11-Jun-19 20:14 46.810199 -120.951540 313 13539ft 253kts
11-Jun-19 20:15 46.852744 -121.038970 303 14029ft 290kts
11-Jun-19 20:16 46.899822 -121.140368 303 14052ft 313kts
11-Jun-19 20:17 46.949398 -121.246457 304 14066ft 323kts
11-Jun-19 20:18 47.000389 -121.356025 304 14080ft 328kts
11-Jun-19 20:19 47.047601 -121.457987 303 14083ft 329kts
11-Jun-19 20:20 47.094418 -121.558599 304 13639ft 335kts
11-Jun-19 20:22 47.125689 -121.688709 286 12827ft 336kts
11-Jun-19 20:23 47.149859 -121.814453 286 11841ft 297kts
11-Jun-19 20:24 47.165781 -121.899974 286 11050ft 261kts
11-Jun-19 20:25 47.178861 -121.968678 286 10356ft 254kts
11-Jun-19 20:26 47.199375 -122.071635 286 9211ft 274kts
11-Jun-19 20:27 47.220748 -122.175594 286 7996ft 248kts
11-Jun-19 20:28 47.239726 -122.263822 299 6560ft 197kts
11-Jun-19 20:29 47.267734 -122.296901 336 5292ft 176kts
11-Jun-19 20:30 47.313854 -122.304221 5 3766ft 171kts
11-Jun-19 20:31 47.347303 -122.304948 354 2821ft 150kts
11-Jun-19 20:32 47.386639 -122.308736 1 1533ft 139kts
11-Jun-19 20:33 47.421003 -122.308268 0 661ft 134kts
11-Jun-19 20:34 47.439675 -122.308040 0 441ft 67kts
11-Jun-19 20:35 47.443465 -122.307138 70 440ft 17kts
11-Jun-19 20:36 47.446694 -122.306015 355 440ft 7kts
11-Jun-19 20:37 47.446890 -122.304819 133 440ft 0kts
11-Jun-19 20:38 47.446890 -122.304819 133 440ft 0kts
11-Jun-19 20:39 47.446890 -122.304819 133 440ft 0kts
11-Jun-19 20:39 47.446890 -122.304819 133 440ft 0kts
11-Jun-19 20:41 47.446890 -122.304818 133 440ft 0kts
11-Jun-19 20:42 47.446890 -122.304818 133 440ft 0kts

Navigation Log

Ident Type
Flight plan parsing failed, navigation log unavailable